Back to Top

Language: 

My Weather Underground Personal Weather Station Historical Data with Graphs...

Delerius Weather Station Historical Data
Daily Summary for March 10, 2017 Units:  Both    English   Metric
« Previous Day
Next Day »
Daily Weekly Monthly Yearly Custom
  High: Low: Average:
Temperature: 55.8 °F /  13.2 °C 39.7 °F /  4.3 °C 47.8 °F /  8.8 °C
Dew Point: 49.6 °F /  9.8 °C 36.7 °F /  2.6 °C 44.2 °F /  6.8 °C
Humidity: 94 % 78 % 88 %
Wind Speed: 9.0 mph /  14.5 km/h - 3.4 mph /  5.5 km/h
Wind Gust: 16.0 mph /  25.7 km/h - -
Wind:- - South
Pressure: 30.31 in /  1026.3 hPa 30.10 in /  1019.2 hPa -
Precipitation: 0.00 in /  0 mm    
Historical Graphs
 
 
Tabular Data for March 10, 2017
Time Temperature Dew Point Pressure Wind Wind Speed Wind Gust Humidity Rainfall Rate (Hourly) solar Conditions
00:05 40.3 °F /  4.6 °C 37.3 °F /  2.9 °C 30.30 in /  1026 hPa Calm   16.0 mph /  25.7 km/h 89 % 0.00 in /  0 mm 0 W/m2
00:15 40.4 °F /  4.7 °C 37.4 °F /  3 °C 30.30 in /  1026 hPa Calm     89 % 0.00 in /  0 mm 0 W/m2
00:20 40.2 °F /  4.6 °C 36.9 °F /  2.7 °C 30.30 in /  1026 hPa Calm     88 % 0.00 in /  0 mm 0 W/m2
00:25 40.1 °F /  4.5 °C 37.1 °F /  2.8 °C 30.30 in /  1026 hPa Calm     89 % 0.00 in /  0 mm 0 W/m2
00:30 40.0 °F /  4.4 °C 37.0 °F /  2.8 °C 30.30 in /  1026 hPa Calm     89 % 0.00 in /  0 mm 0 W/m2
00:40 39.7 °F /  4.3 °C 36.7 °F /  2.6 °C 30.30 in /  1026 hPa Calm     89 % 0.00 in /  0 mm 0 W/m2
00:45 39.8 °F /  4.3 °C 37.1 °F /  2.8 °C 30.31 in /  1026.3 hPa Calm     90 % 0.00 in /  0 mm 0 W/m2
00:55 39.9 °F /  4.4 °C 36.9 °F /  2.7 °C 30.30 in /  1026 hPa Calm     89 % 0.00 in /  0 mm 0 W/m2
01:00 39.8 °F /  4.3 °C 36.8 °F /  2.7 °C 30.30 in /  1026 hPa Calm     89 % 0.00 in /  0 mm 0 W/m2
01:05 39.8 °F /  4.3 °C 37.1 °F /  2.8 °C 30.30 in /  1026 hPa Calm     90 % 0.00 in /  0 mm 0 W/m2
01:15 40.1 °F /  4.5 °C 37.4 °F /  3 °C 30.30 in /  1026 hPa Calm     90 % 0.00 in /  0 mm 0 W/m2
01:20 40.1 °F /  4.5 °C 37.4 °F /  3 °C 30.29 in /  1025.6 hPa Calm     90 % 0.00 in /  0 mm 0 W/m2
01:25 40.1 °F /  4.5 °C 37.4 °F /  3 °C 30.29 in /  1025.6 hPa Calm     90 % 0.00 in /  0 mm 0 W/m2
01:30 40.1 °F /  4.5 °C 37.4 °F /  3 °C 30.29 in /  1025.6 hPa Calm     90 % 0.00 in /  0 mm 0 W/m2
01:35 40.1 °F /  4.5 °C 37.1 °F /  2.8 °C 30.29 in /  1025.6 hPa Calm     89 % 0.00 in /  0 mm 0 W/m2
01:45 40.3 °F /  4.6 °C 37.6 °F /  3.1 °C 30.28 in /  1025.3 hPa Calm     90 % 0.00 in /  0 mm 0 W/m2
01:50 40.5 °F /  4.7 °C 37.8 °F /  3.2 °C 30.28 in /  1025.3 hPa Calm     90 % 0.00 in /  0 mm 0 W/m2
01:55 40.8 °F /  4.9 °C 38.1 °F /  3.4 °C 30.28 in /  1025.3 hPa Calm     90 % 0.00 in /  0 mm 0 W/m2
02:00 40.8 °F /  4.9 °C 37.8 °F /  3.2 °C 30.29 in /  1025.6 hPa Calm     89 % 0.00 in /  0 mm 0 W/m2
02:05 40.6 °F /  4.8 °C 37.6 °F /  3.1 °C 30.28 in /  1025.3 hPa Calm     89 % 0.00 in /  0 mm 0 W/m2
02:15 40.8 °F /  4.9 °C 37.8 °F /  3.2 °C 30.28 in /  1025.3 hPa Calm     89 % 0.00 in /  0 mm 0 W/m2
02:25 40.8 °F /  4.9 °C 37.8 °F /  3.2 °C 30.28 in /  1025.3 hPa Calm     89 % 0.00 in /  0 mm 0 W/m2
02:30 40.8 °F /  4.9 °C 37.8 °F /  3.2 °C 30.28 in /  1025.3 hPa Calm     89 % 0.00 in /  0 mm 0 W/m2
02:35 40.7 °F /  4.8 °C 37.7 °F /  3.2 °C 30.28 in /  1025.3 hPa Calm     89 % 0.00 in /  0 mm 0 W/m2
02:40 40.7 °F /  4.8 °C 37.7 °F /  3.2 °C 30.27 in /  1024.9 hPa Calm     89 % 0.00 in /  0 mm 0 W/m2
02:45 40.8 °F /  4.9 °C 37.8 °F /  3.2 °C 30.27 in /  1024.9 hPa Calm     89 % 0.00 in /  0 mm 0 W/m2
02:55 41.0 °F /  5 °C 38.3 °F /  3.5 °C 30.27 in /  1024.9 hPa Calm   1.0 mph /  1.6 km/h 90 % 0.00 in /  0 mm 0 W/m2
03:00 41.1 °F /  5.1 °C 38.1 °F /  3.4 °C 30.26 in /  1024.6 hPa Calm     89 % 0.00 in /  0 mm 0 W/m2
03:05 41.4 °F /  5.2 °C 38.4 °F /  3.6 °C 30.26 in /  1024.6 hPa Calm     89 % 0.00 in /  0 mm 0 W/m2
03:15 41.5 °F /  5.3 °C 38.2 °F /  3.4 °C 30.26 in /  1024.6 hPa Calm     88 % 0.00 in /  0 mm 0 W/m2
03:25 41.6 °F /  5.3 °C 38.3 °F /  3.5 °C 30.26 in /  1024.6 hPa Calm     88 % 0.00 in /  0 mm 0 W/m2
03:30 41.6 °F /  5.3 °C 38.3 °F /  3.5 °C 30.26 in /  1024.6 hPa Calm     88 % 0.00 in /  0 mm 0 W/m2
03:35 41.5 °F /  5.3 °C 38.2 °F /  3.4 °C 30.26 in /  1024.6 hPa Calm   2.0 mph /  3.2 km/h 88 % 0.00 in /  0 mm 0 W/m2
03:45 41.6 °F /  5.3 °C 38.3 °F /  3.5 °C 30.26 in /  1024.6 hPa SSE 2.0 mph /  3.2 km/h 4.0 mph /  6.4 km/h 88 % 0.00 in /  0 mm 0 W/m2
03:50 41.8 °F /  5.4 °C 38.5 °F /  3.6 °C 30.26 in /  1024.6 hPa SSE 2.0 mph /  3.2 km/h 2.0 mph /  3.2 km/h 88 % 0.00 in /  0 mm 0 W/m2
04:00 41.9 °F /  5.5 °C 38.3 °F /  3.5 °C 30.26 in /  1024.6 hPa SSE 1.0 mph /  1.6 km/h 1.0 mph /  1.6 km/h 87 % 0.00 in /  0 mm 0 W/m2
04:05 41.8 °F /  5.4 °C 38.2 °F /  3.4 °C 30.26 in /  1024.6 hPa SSE 1.0 mph /  1.6 km/h 1.0 mph /  1.6 km/h 87 % 0.00 in /  0 mm 0 W/m2
04:10 41.9 °F /  5.5 °C 38.3 °F /  3.5 °C 30.26 in /  1024.6 hPa SSE 1.0 mph /  1.6 km/h 1.0 mph /  1.6 km/h 87 % 0.00 in /  0 mm 0 W/m2
04:15 42.0 °F /  5.6 °C 38.4 °F /  3.6 °C 30.26 in /  1024.6 hPa SSE 1.0 mph /  1.6 km/h 1.0 mph /  1.6 km/h 87 % 0.00 in /  0 mm 0 W/m2
04:20 41.9 °F /  5.5 °C 38.3 °F /  3.5 °C 30.25 in /  1024.3 hPa Calm     87 % 0.00 in /  0 mm 0 W/m2
04:25 41.8 °F /  5.4 °C 38.2 °F /  3.4 °C 30.25 in /  1024.3 hPa Calm     87 % 0.00 in /  0 mm 0 W/m2
04:30 41.7 °F /  5.4 °C 38.1 °F /  3.4 °C 30.25 in /  1024.3 hPa Calm     87 % 0.00 in /  0 mm 0 W/m2
04:35 41.6 °F /  5.3 °C 38.0 °F /  3.3 °C 30.25 in /  1024.3 hPa Calm     87 % 0.00 in /  0 mm 0 W/m2
04:40 41.5 °F /  5.3 °C 37.9 °F /  3.3 °C 30.25 in /  1024.3 hPa Calm     87 % 0.00 in /  0 mm 0 W/m2
04:45 41.4 °F /  5.2 °C 37.8 °F /  3.2 °C 30.25 in /  1024.3 hPa Calm     87 % 0.00 in /  0 mm 0 W/m2
04:50 41.4 °F /  5.2 °C 38.1 °F /  3.4 °C 30.25 in /  1024.3 hPa Calm     88 % 0.00 in /  0 mm 0 W/m2
04:55 41.3 °F /  5.2 °C 38.0 °F /  3.3 °C 30.25 in /  1024.3 hPa Calm     88 % 0.00 in /  0 mm 0 W/m2
05:05 41.3 °F /  5.2 °C 38.0 °F /  3.3 °C 30.25 in /  1024.3 hPa SSE 1.0 mph /  1.6 km/h 1.0 mph /  1.6 km/h 88 % 0.00 in /  0 mm 0 W/m2
05:10 41.4 °F /  5.2 °C 38.1 °F /  3.4 °C 30.25 in /  1024.3 hPa SSE 2.0 mph /  3.2 km/h 2.0 mph /  3.2 km/h 88 % 0.00 in /  0 mm 0 W/m2
05:20 41.8 °F /  5.4 °C 38.5 °F /  3.6 °C 30.24 in /  1023.9 hPa SE 3.0 mph /  4.8 km/h 3.0 mph /  4.8 km/h 88 % 0.00 in /  0 mm 0 W/m2
05:25 42.0 °F /  5.6 °C 38.7 °F /  3.7 °C 30.25 in /  1024.3 hPa SE 2.0 mph /  3.2 km/h 3.0 mph /  4.8 km/h 88 % 0.00 in /  0 mm 0 W/m2
05:30 42.2 °F /  5.7 °C 38.6 °F /  3.7 °C 30.24 in /  1023.9 hPa SSE 2.0 mph /  3.2 km/h 2.0 mph /  3.2 km/h 87 % 0.00 in /  0 mm 0 W/m2
05:40 42.3 °F /  5.7 °C 38.7 °F /  3.7 °C 30.24 in /  1023.9 hPa SE 2.0 mph /  3.2 km/h 2.0 mph /  3.2 km/h 87 % 0.00 in /  0 mm 0 W/m2
05:45 42.3 °F /  5.7 °C 38.7 °F /  3.7 °C 30.25 in /  1024.3 hPa SE 2.0 mph /  3.2 km/h 2.0 mph /  3.2 km/h 87 % 0.00 in /  0 mm 0 W/m2
05:50 42.4 °F /  5.8 °C 38.5 °F /  3.6 °C 30.25 in /  1024.3 hPa Calm     86 % 0.00 in /  0 mm 0 W/m2
05:55 42.5 °F /  5.8 °C 38.6 °F /  3.7 °C 30.25 in /  1024.3 hPa SE 1.0 mph /  1.6 km/h 1.0 mph /  1.6 km/h 86 % 0.00 in /  0 mm 0 W/m2
06:00 42.6 °F /  5.9 °C 38.7 °F /  3.7 °C 30.24 in /  1023.9 hPa SE 1.0 mph /  1.6 km/h 2.0 mph /  3.2 km/h 86 % 0.00 in /  0 mm 0 W/m2
06:05 42.7 °F /  5.9 °C 38.8 °F /  3.8 °C 30.24 in /  1023.9 hPa Calm   2.0 mph /  3.2 km/h 86 % 0.00 in /  0 mm 0 W/m2
06:15 42.9 °F /  6.1 °C 39.0 °F /  3.9 °C 30.24 in /  1023.9 hPa SE 4.0 mph /  6.4 km/h 7.0 mph /  11.3 km/h 86 % 0.00 in /  0 mm 0 W/m2
06:20 43.2 °F /  6.2 °C 39.0 °F /  3.9 °C 30.24 in /  1023.9 hPa SE 5.0 mph /  8 km/h 5.0 mph /  8 km/h 85 % 0.00 in /  0 mm 0 W/m2
06:25 43.3 °F /  6.3 °C 38.8 °F /  3.8 °C 30.24 in /  1023.9 hPa SSE 5.0 mph /  8 km/h 5.0 mph /  8 km/h 84 % 0.00 in /  0 mm 0 W/m2
06:30 43.2 °F /  6.2 °C 38.7 °F /  3.7 °C 30.23 in /  1023.6 hPa SSE 3.0 mph /  4.8 km/h 3.0 mph /  4.8 km/h 84 % 0.00 in /  0 mm 0 W/m2
06:35 43.2 °F /  6.2 °C 38.7 °F /  3.7 °C 30.23 in /  1023.6 hPa SSE 2.0 mph /  3.2 km/h 3.0 mph /  4.8 km/h 84 % 0.00 in /  0 mm 5 W/m2
06:45 43.1 °F /  6.2 °C 38.9 °F /  3.8 °C 30.23 in /  1023.6 hPa ENE 1.0 mph /  1.6 km/h 1.0 mph /  1.6 km/h 85 % 0.00 in /  0 mm 9 W/m2
06:55 43.2 °F /  6.2 °C 39.0 °F /  3.9 °C 30.23 in /  1023.6 hPa ENE 3.0 mph /  4.8 km/h 4.0 mph /  6.4 km/h 85 % 0.00 in /  0 mm 14 W/m2
07:00 43.2 °F /  6.2 °C 39.0 °F /  3.9 °C 30.23 in /  1023.6 hPa East 2.0 mph /  3.2 km/h 5.0 mph /  8 km/h 85 % 0.00 in /  0 mm 16 W/m2
07:05 43.3 °F /  6.3 °C 39.1 °F /  3.9 °C 30.23 in /  1023.6 hPa East 1.0 mph /  1.6 km/h 5.0 mph /  8 km/h 85 % 0.00 in /  0 mm 16 W/m2
07:10 43.3 °F /  6.3 °C 39.1 °F /  3.9 °C 30.23 in /  1023.6 hPa East 1.0 mph /  1.6 km/h 3.0 mph /  4.8 km/h 85 % 0.00 in /  0 mm 19 W/m2
07:20 43.4 °F /  6.3 °C 39.2 °F /  4 °C 30.23 in /  1023.6 hPa SSE 2.0 mph /  3.2 km/h 5.0 mph /  8 km/h 85 % 0.00 in /  0 mm 37 W/m2
07:25 43.5 °F /  6.4 °C 39.3 °F /  4.1 °C 30.23 in /  1023.6 hPa ESE 2.0 mph /  3.2 km/h 5.0 mph /  8 km/h 85 % 0.00 in /  0 mm 35 W/m2
07:30 43.8 °F /  6.6 °C 39.6 °F /  4.2 °C 30.23 in /  1023.6 hPa ESE 3.0 mph /  4.8 km/h 4.0 mph /  6.4 km/h 85 % 0.00 in /  0 mm 32 W/m2
07:35 44.0 °F /  6.7 °C 39.5 °F /  4.2 °C 30.23 in /  1023.6 hPa ESE 3.0 mph /  4.8 km/h 5.0 mph /  8 km/h 84 % 0.00 in /  0 mm 32 W/m2
07:40 44.1 °F /  6.7 °C 39.6 °F /  4.2 °C 30.23 in /  1023.6 hPa ESE 3.0 mph /  4.8 km/h 3.0 mph /  4.8 km/h 84 % 0.00 in /  0 mm 28 W/m2
07:45 44.2 °F /  6.8 °C 39.7 °F /  4.3 °C 30.23 in /  1023.6 hPa ESE 3.0 mph /  4.8 km/h 3.0 mph /  4.8 km/h 84 % 0.00 in /  0 mm 30 W/m2
07:55 44.3 °F /  6.8 °C 39.8 °F /  4.3 °C 30.23 in /  1023.6 hPa ESE 3.0 mph /  4.8 km/h 4.0 mph /  6.4 km/h 84 % 0.00 in /  0 mm 28 W/m2
08:00 44.3 °F /  6.8 °C 39.8 °F /  4.3 °C 30.23 in /  1023.6 hPa East 3.0 mph /  4.8 km/h 3.0 mph /  4.8 km/h 84 % 0.00 in /  0 mm 28 W/m2
08:05 44.3 °F /  6.8 °C 39.8 °F /  4.3 °C 30.23 in /  1023.6 hPa ESE 2.0 mph /  3.2 km/h 4.0 mph /  6.4 km/h 84 % 0.00 in /  0 mm 32 W/m2
08:15 44.5 °F /  6.9 °C 40.0 °F /  4.4 °C 30.23 in /  1023.6 hPa East 5.0 mph /  8 km/h 6.0 mph /  9.7 km/h 84 % 0.00 in /  0 mm 47 W/m2
08:20 44.7 °F /  7.1 °C 40.2 °F /  4.6 °C 30.23 in /  1023.6 hPa ESE 5.0 mph /  8 km/h 6.0 mph /  9.7 km/h 84 % 0.00 in /  0 mm 67 W/m2
08:30 45.1 °F /  7.3 °C 40.6 °F /  4.8 °C 30.23 in /  1023.6 hPa ESE 5.0 mph /  8 km/h 6.0 mph /  9.7 km/h 84 % 0.00 in /  0 mm 91 W/m2
08:35 45.4 °F /  7.4 °C 40.8 °F /  4.9 °C 30.23 in /  1023.6 hPa SE 5.0 mph /  8 km/h 6.0 mph /  9.7 km/h 84 % 0.00 in /  0 mm 86 W/m2
08:40 45.6 °F /  7.6 °C 40.7 °F /  4.8 °C 30.23 in /  1023.6 hPa SE 3.0 mph /  4.8 km/h 5.0 mph /  8 km/h 83 % 0.00 in /  0 mm 76 W/m2
08:45 45.8 °F /  7.7 °C 40.9 °F /  4.9 °C 30.23 in /  1023.6 hPa ESE 2.0 mph /  3.2 km/h 5.0 mph /  8 km/h 83 % 0.00 in /  0 mm 58 W/m2
08:50 46.1 °F /  7.8 °C 41.2 °F /  5.1 °C 30.23 in /  1023.6 hPa ESE 3.0 mph /  4.8 km/h 3.0 mph /  4.8 km/h 83 % 0.00 in /  0 mm 65 W/m2
09:00 46.4 °F /  8 °C 41.5 °F /  5.3 °C 30.23 in /  1023.6 hPa South 3.0 mph /  4.8 km/h 3.0 mph /  4.8 km/h 83 % 0.00 in /  0 mm 116 W/m2
09:05 46.7 °F /  8.2 °C 41.8 °F /  5.4 °C 30.23 in /  1023.6 hPa SSE 4.0 mph /  6.4 km/h 6.0 mph /  9.7 km/h 83 % 0.00 in /  0 mm 120 W/m2
09:10 46.8 °F /  8.2 °C 41.9 °F /  5.5 °C 30.23 in /  1023.6 hPa South 5.0 mph /  8 km/h 6.0 mph /  9.7 km/h 83 % 0.00 in /  0 mm 121 W/m2
09:15 47.0 °F /  8.3 °C 42.1 °F /  5.6 °C 30.23 in /  1023.6 hPa South 6.0 mph /  9.7 km/h 6.0 mph /  9.7 km/h 83 % 0.00 in /  0 mm 109 W/m2
09:20 47.2 °F /  8.4 °C 42.3 °F /  5.7 °C 30.22 in /  1023.2 hPa SSW 6.0 mph /  9.7 km/h 6.0 mph /  9.7 km/h 83 % 0.00 in /  0 mm 98 W/m2
09:25 47.3 °F /  8.5 °C 42.4 °F /  5.8 °C 30.22 in /  1023.2 hPa SSW 6.0 mph /  9.7 km/h 6.0 mph /  9.7 km/h 83 % 0.00 in /  0 mm 67 W/m2
09:30 47.5 °F /  8.6 °C 42.9 °F /  6.1 °C 30.22 in /  1023.2 hPa SW 7.0 mph /  11.3 km/h 9.0 mph /  14.5 km/h 84 % 0.00 in /  0 mm 62 W/m2
09:35 47.6 °F /  8.7 °C 43.0 °F /  6.1 °C 30.22 in /  1023.2 hPa SSW 8.0 mph /  12.9 km/h 9.0 mph /  14.5 km/h 84 % 0.00 in /  0 mm 62 W/m2
09:45 47.5 °F /  8.6 °C 42.9 °F /  6.1 °C 30.22 in /  1023.2 hPa SSW 8.0 mph /  12.9 km/h 10.0 mph /  16.1 km/h 84 % 0.00 in /  0 mm 90 W/m2
09:50 47.4 °F /  8.6 °C 43.1 °F /  6.2 °C 30.22 in /  1023.2 hPa SW 9.0 mph /  14.5 km/h 11.0 mph /  17.7 km/h 85 % 0.00 in /  0 mm 91 W/m2
09:55 47.3 °F /  8.5 °C 43.0 °F /  6.1 °C 30.22 in /  1023.2 hPa South 8.0 mph /  12.9 km/h 11.0 mph /  17.7 km/h 85 % 0.00 in /  0 mm 118 W/m2
10:00 47.4 °F /  8.6 °C 43.1 °F /  6.2 °C 30.22 in /  1023.2 hPa South 8.0 mph /  12.9 km/h 10.0 mph /  16.1 km/h 85 % 0.00 in /  0 mm 128 W/m2
10:10 47.5 °F /  8.6 °C 43.5 °F /  6.4 °C 30.22 in /  1023.2 hPa South 9.0 mph /  14.5 km/h 10.0 mph /  16.1 km/h 86 % 0.00 in /  0 mm 146 W/m2
10:15 47.7 °F /  8.7 °C 44.0 °F /  6.7 °C 30.22 in /  1023.2 hPa South 9.0 mph /  14.5 km/h 10.0 mph /  16.1 km/h 87 % 0.00 in /  0 mm 144 W/m2
10:20 47.9 °F /  8.8 °C 44.2 °F /  6.8 °C 30.22 in /  1023.2 hPa South 8.0 mph /  12.9 km/h 8.0 mph /  12.9 km/h 87 % 0.00 in /  0 mm 169 W/m2
10:25 48.2 °F /  9 °C 44.5 °F /  6.9 °C 30.22 in /  1023.2 hPa SSW 9.0 mph /  14.5 km/h 9.0 mph /  14.5 km/h 87 % 0.00 in /  0 mm 169 W/m2
10:30 48.5 °F /  9.2 °C 44.8 °F /  7.1 °C 30.22 in /  1023.2 hPa South 9.0 mph /  14.5 km/h 9.0 mph /  14.5 km/h 87 % 0.00 in /  0 mm 188 W/m2
10:40 49.1 °F /  9.5 °C 45.4 °F /  7.4 °C 30.22 in /  1023.2 hPa SSW 5.0 mph /  8 km/h 7.0 mph /  11.3 km/h 87 % 0.00 in /  0 mm 118 W/m2
10:45 49.4 °F /  9.7 °C 45.7 °F /  7.6 °C 30.22 in /  1023.2 hPa SSW 5.0 mph /  8 km/h 10.0 mph /  16.1 km/h 87 % 0.00 in /  0 mm 125 W/m2
10:50 49.4 °F /  9.7 °C 45.7 °F /  7.6 °C 30.21 in /  1022.9 hPa SW 8.0 mph /  12.9 km/h 8.0 mph /  12.9 km/h 87 % 0.00 in /  0 mm 137 W/m2
10:55 49.5 °F /  9.7 °C 45.8 °F /  7.7 °C 30.21 in /  1022.9 hPa South 7.0 mph /  11.3 km/h 8.0 mph /  12.9 km/h 87 % 0.00 in /  0 mm 178 W/m2
11:00 49.6 °F /  9.8 °C 46.2 °F /  7.9 °C 30.21 in /  1022.9 hPa SW 7.0 mph /  11.3 km/h 11.0 mph /  17.7 km/h 88 % 0.00 in /  0 mm 350 W/m2
11:10 50.1 °F /  10.1 °C 46.4 °F /  8 °C 30.21 in /  1022.9 hPa WSW 8.0 mph /  12.9 km/h 8.0 mph /  12.9 km/h 87 % 0.00 in /  0 mm 248 W/m2
11:20 50.4 °F /  10.2 °C 46.4 °F /  8 °C 30.20 in /  1022.6 hPa SSW 7.0 mph /  11.3 km/h 7.0 mph /  11.3 km/h 86 % 0.00 in /  0 mm 211 W/m2
11:25 50.6 °F /  10.3 °C 46.6 °F /  8.1 °C 30.20 in /  1022.6 hPa SSW 6.0 mph /  9.7 km/h 7.0 mph /  11.3 km/h 86 % 0.00 in /  0 mm 218 W/m2
11:30 50.7 °F /  10.4 °C 46.7 °F /  8.2 °C 30.20 in /  1022.6 hPa SSW 5.0 mph /  8 km/h 11.0 mph /  17.7 km/h 86 % 0.00 in /  0 mm 176 W/m2
11:35 50.9 °F /  10.5 °C 46.9 °F /  8.3 °C 30.20 in /  1022.6 hPa SSW 6.0 mph /  9.7 km/h 11.0 mph /  17.7 km/h 86 % 0.00 in /  0 mm 142 W/m2
11:40 51.0 °F /  10.6 °C 47.0 °F /  8.3 °C 30.20 in /  1022.6 hPa SSW 6.0 mph /  9.7 km/h 6.0 mph /  9.7 km/h 86 % 0.00 in /  0 mm 130 W/m2
11:50 51.2 °F /  10.7 °C 46.8 °F /  8.2 °C 30.20 in /  1022.6 hPa South 5.0 mph /  8 km/h 5.0 mph /  8 km/h 85 % 0.00 in /  0 mm 127 W/m2
11:55 51.3 °F /  10.7 °C 46.9 °F /  8.3 °C 30.20 in /  1022.6 hPa South 6.0 mph /  9.7 km/h 6.0 mph /  9.7 km/h 85 % 0.00 in /  0 mm 132 W/m2
12:00 51.4 °F /  10.8 °C 47.0 °F /  8.3 °C 30.20 in /  1022.6 hPa SW 6.0 mph /  9.7 km/h 7.0 mph /  11.3 km/h 85 % 0.00 in /  0 mm 158 W/m2
12:05 51.4 °F /  10.8 °C 47.4 °F /  8.6 °C 30.20 in /  1022.6 hPa SSW 7.0 mph /  11.3 km/h 7.0 mph /  11.3 km/h 86 % 0.00 in /  0 mm 163 W/m2
12:15 51.4 °F /  10.8 °C 47.4 °F /  8.6 °C 30.19 in /  1022.2 hPa South 6.0 mph /  9.7 km/h 8.0 mph /  12.9 km/h 86 % 0.00 in /  0 mm 193 W/m2
12:25 51.6 °F /  10.9 °C 47.5 °F /  8.6 °C 30.19 in /  1022.2 hPa SSW 7.0 mph /  11.3 km/h 7.0 mph /  11.3 km/h 86 % 0.00 in /  0 mm 179 W/m2
12:30 51.8 °F /  11 °C 47.4 °F /  8.6 °C 30.19 in /  1022.2 hPa SW 7.0 mph /  11.3 km/h 9.0 mph /  14.5 km/h 85 % 0.00 in /  0 mm 190 W/m2
12:35 52.0 °F /  11.1 °C 47.6 °F /  8.7 °C 30.19 in /  1022.2 hPa South 7.0 mph /  11.3 km/h 9.0 mph /  14.5 km/h 85 % 0.00 in /  0 mm 183 W/m2
12:40 52.2 °F /  11.2 °C 47.8 °F /  8.8 °C 30.19 in /  1022.2 hPa SSE 6.0 mph /  9.7 km/h 6.0 mph /  9.7 km/h 85 % 0.00 in /  0 mm 188 W/m2
12:45 52.4 °F /  11.3 °C 47.7 °F /  8.7 °C 30.19 in /  1022.2 hPa SSW 6.0 mph /  9.7 km/h 7.0 mph /  11.3 km/h 84 % 0.00 in /  0 mm 162 W/m2
12:55 52.6 °F /  11.4 °C 47.9 °F /  8.8 °C 30.19 in /  1022.2 hPa WNW 7.0 mph /  11.3 km/h 11.0 mph /  17.7 km/h 84 % 0.00 in /  0 mm 188 W/m2
13:00 52.7 °F /  11.5 °C 48.0 °F /  8.9 °C 30.19 in /  1022.2 hPa SSW 8.0 mph /  12.9 km/h 8.0 mph /  12.9 km/h 84 % 0.00 in /  0 mm 230 W/m2
13:05 52.9 °F /  11.6 °C 48.2 °F /  9 °C 30.18 in /  1021.9 hPa WSW 7.0 mph /  11.3 km/h 9.0 mph /  14.5 km/h 84 % 0.00 in /  0 mm 315 W/m2
13:10 53.4 °F /  11.9 °C 48.7 °F /  9.3 °C 30.18 in /  1021.9 hPa SSW 6.0 mph /  9.7 km/h 8.0 mph /  12.9 km/h 84 % 0.00 in /  0 mm 513 W/m2
13:15 53.8 °F /  12.1 °C 48.8 °F /  9.3 °C 30.18 in /  1021.9 hPa SSW 6.0 mph /  9.7 km/h 8.0 mph /  12.9 km/h 83 % 0.00 in /  0 mm 301 W/m2
13:20 54.1 °F /  12.3 °C 48.7 °F /  9.3 °C 30.17 in /  1021.6 hPa SSW 8.0 mph /  12.9 km/h 10.0 mph /  16.1 km/h 82 % 0.00 in /  0 mm 540 W/m2
13:30 54.7 °F /  12.6 °C 49.0 °F /  9.4 °C 30.17 in /  1021.6 hPa SSW 8.0 mph /  12.9 km/h 8.0 mph /  12.9 km/h 81 % 0.00 in /  0 mm 613 W/m2
13:35 55.3 °F /  12.9 °C 49.6 °F /  9.8 °C 30.17 in /  1021.6 hPa SSW 7.0 mph /  11.3 km/h 8.0 mph /  12.9 km/h 81 % 0.00 in /  0 mm 679 W/m2
13:45 55.8 °F /  13.2 °C 49.0 °F /  9.4 °C 30.17 in /  1021.6 hPa SW 7.0 mph /  11.3 km/h 7.0 mph /  11.3 km/h 78 % 0.00 in /  0 mm 476 W/m2
13:50 55.7 °F /  13.2 °C 49.3 °F /  9.6 °C 30.17 in /  1021.6 hPa South 8.0 mph /  12.9 km/h 8.0 mph /  12.9 km/h 79 % 0.00 in /  0 mm 339 W/m2
13:55 55.6 °F /  13.1 °C 49.2 °F /  9.6 °C 30.17 in /  1021.6 hPa SW 8.0 mph /  12.9 km/h 8.0 mph /  12.9 km/h 79 % 0.00 in /  0 mm 362 W/m2
14:05 55.5 °F /  13.1 °C 49.1 °F /  9.5 °C 30.17 in /  1021.6 hPa SW 7.0 mph /  11.3 km/h 8.0 mph /  12.9 km/h 79 % 0.00 in /  0 mm 287 W/m2
14:10 55.5 °F /  13.1 °C 49.1 °F /  9.5 °C 30.16 in /  1021.2 hPa SW 7.0 mph /  11.3 km/h 9.0 mph /  14.5 km/h 79 % 0.00 in /  0 mm 199 W/m2
14:15 55.5 °F /  13.1 °C 49.1 °F /  9.5 °C 30.16 in /  1021.2 hPa SW 7.0 mph /  11.3 km/h 9.0 mph /  14.5 km/h 79 % 0.00 in /  0 mm 244 W/m2
14:20 55.3 °F /  12.9 °C 48.9 °F /  9.4 °C 30.16 in /  1021.2 hPa SW 8.0 mph /  12.9 km/h 9.0 mph /  14.5 km/h 79 % 0.00 in /  0 mm 211 W/m2
14:25 55.0 °F /  12.8 °C 48.6 °F /  9.2 °C 30.16 in /  1021.2 hPa SSW 9.0 mph /  14.5 km/h 9.0 mph /  14.5 km/h 79 % 0.00 in /  0 mm 234 W/m2
14:30 55.0 °F /  12.8 °C 48.9 °F /  9.4 °C 30.16 in /  1021.2 hPa South 8.0 mph /  12.9 km/h 9.0 mph /  14.5 km/h 80 % 0.00 in /  0 mm 211 W/m2
14:35 55.0 °F /  12.8 °C 48.9 °F /  9.4 °C 30.16 in /  1021.2 hPa SW 6.0 mph /  9.7 km/h 9.0 mph /  14.5 km/h 80 % 0.00 in /  0 mm 160 W/m2
14:40 54.8 °F /  12.7 °C 48.7 °F /  9.3 °C 30.16 in /  1021.2 hPa SW 7.0 mph /  11.3 km/h 11.0 mph /  17.7 km/h 80 % 0.00 in /  0 mm 125 W/m2
14:45 54.7 °F /  12.6 °C 48.6 °F /  9.2 °C 30.16 in /  1021.2 hPa SE 8.0 mph /  12.9 km/h 11.0 mph /  17.7 km/h 80 % 0.00 in /  0 mm 116 W/m2
14:50 54.6 °F /  12.6 °C 48.6 °F /  9.2 °C 30.16 in /  1021.2 hPa SW 8.0 mph /  12.9 km/h 8.0 mph /  12.9 km/h 80 % 0.00 in /  0 mm 104 W/m2
14:55 54.5 °F /  12.5 °C 48.5 °F /  9.2 °C 30.16 in /  1021.2 hPa South 7.0 mph /  11.3 km/h 8.0 mph /  12.9 km/h 80 % 0.00 in /  0 mm 90 W/m2
15:05 54.3 °F /  12.4 °C 48.3 °F /  9.1 °C 30.16 in /  1021.2 hPa SW 7.0 mph /  11.3 km/h 10.0 mph /  16.1 km/h 80 % 0.00 in /  0 mm 65 W/m2
15:10 54.1 °F /  12.3 °C 48.4 °F /  9.1 °C 30.15 in /  1020.9 hPa SSW 8.0 mph /  12.9 km/h 12.0 mph /  19.3 km/h 81 % 0.00 in /  0 mm 79 W/m2
15:20 53.7 °F /  12.1 °C 48.3 °F /  9.1 °C 30.15 in /  1020.9 hPa SSW 8.0 mph /  12.9 km/h 8.0 mph /  12.9 km/h 82 % 0.00 in /  0 mm 58 W/m2
15:25 53.6 °F /  12 °C 48.2 °F /  9 °C 30.15 in /  1020.9 hPa SSW 8.0 mph /  12.9 km/h 9.0 mph /  14.5 km/h 82 % 0.00 in /  0 mm 56 W/m2
15:30 53.4 °F /  11.9 °C 48.4 °F /  9.1 °C 30.15 in /  1020.9 hPa SW 8.0 mph /  12.9 km/h 9.0 mph /  14.5 km/h 83 % 0.00 in /  0 mm 63 W/m2
15:35 53.2 °F /  11.8 °C 48.2 °F /  9 °C 30.15 in /  1020.9 hPa SW 8.0 mph /  12.9 km/h 9.0 mph /  14.5 km/h 83 % 0.00 in /  0 mm 63 W/m2
15:45 53.0 °F /  11.7 °C 48.3 °F /  9.1 °C 30.15 in /  1020.9 hPa SSW 7.0 mph /  11.3 km/h 8.0 mph /  12.9 km/h 84 % 0.00 in /  0 mm 60 W/m2
15:50 52.9 °F /  11.6 °C 48.2 °F /  9 °C 30.14 in /  1020.5 hPa SSW 6.0 mph /  9.7 km/h 6.0 mph /  9.7 km/h 84 % 0.00 in /  0 mm 54 W/m2
15:55 52.9 °F /  11.6 °C 48.2 °F /  9 °C 30.14 in /  1020.5 hPa SSW 6.0 mph /  9.7 km/h 6.0 mph /  9.7 km/h 84 % 0.00 in /  0 mm 56 W/m2
16:00 52.9 °F /  11.6 °C 48.2 °F /  9 °C 30.14 in /  1020.5 hPa SW 5.0 mph /  8 km/h 6.0 mph /  9.7 km/h 84 % 0.00 in /  0 mm 62 W/m2
16:05 52.9 °F /  11.6 °C 48.2 °F /  9 °C 30.14 in /  1020.5 hPa South 5.0 mph /  8 km/h 6.0 mph /  9.7 km/h 84 % 0.00 in /  0 mm 63 W/m2
16:15 52.9 °F /  11.6 °C 48.2 °F /  9 °C 30.14 in /  1020.5 hPa SSW 7.0 mph /  11.3 km/h 8.0 mph /  12.9 km/h 84 % 0.00 in /  0 mm 44 W/m2
16:20 52.8 °F /  11.6 °C 48.1 °F /  8.9 °C 30.14 in /  1020.5 hPa SSW 7.0 mph /  11.3 km/h 7.0 mph /  11.3 km/h 84 % 0.00 in /  0 mm 42 W/m2
16:25 52.7 °F /  11.5 °C 48.3 °F /  9.1 °C 30.14 in /  1020.5 hPa SW 6.0 mph /  9.7 km/h 7.0 mph /  11.3 km/h 85 % 0.00 in /  0 mm 28 W/m2
16:30 52.7 °F /  11.5 °C 48.3 °F /  9.1 °C 30.14 in /  1020.5 hPa SW 6.0 mph /  9.7 km/h 8.0 mph /  12.9 km/h 85 % 0.00 in /  0 mm 23 W/m2
16:40 52.5 °F /  11.4 °C 48.4 °F /  9.1 °C 30.14 in /  1020.5 hPa SSW 6.0 mph /  9.7 km/h 6.0 mph /  9.7 km/h 86 % 0.00 in /  0 mm 16 W/m2
16:45 52.4 °F /  11.3 °C 48.3 °F /  9.1 °C 30.14 in /  1020.5 hPa South 5.0 mph /  8 km/h 6.0 mph /  9.7 km/h 86 % 0.00 in /  0 mm 12 W/m2
16:55 52.2 °F /  11.2 °C 48.8 °F /  9.3 °C 30.14 in /  1020.5 hPa SSW 5.0 mph /  8 km/h 8.0 mph /  12.9 km/h 88 % 0.00 in /  0 mm 7 W/m2
17:00 52.1 °F /  11.2 °C 48.7 °F /  9.3 °C 30.14 in /  1020.5 hPa SSW 4.0 mph /  6.4 km/h 4.0 mph /  6.4 km/h 88 % 0.00 in /  0 mm 7 W/m2
17:05 51.9 °F /  11.1 °C 48.8 °F /  9.3 °C 30.14 in /  1020.5 hPa SSW 4.0 mph /  6.4 km/h 5.0 mph /  8 km/h 89 % 0.00 in /  0 mm 5 W/m2
17:10 51.7 °F /  10.9 °C 48.9 °F /  9.4 °C 30.14 in /  1020.5 hPa South 4.0 mph /  6.4 km/h 5.0 mph /  8 km/h 90 % 0.00 in /  0 mm 5 W/m2
17:15 51.6 °F /  10.9 °C 48.8 °F /  9.3 °C 30.14 in /  1020.5 hPa South 4.0 mph /  6.4 km/h 5.0 mph /  8 km/h 90 % 0.00 in /  0 mm 9 W/m2
17:25 51.4 °F /  10.8 °C 48.9 °F /  9.4 °C 30.14 in /  1020.5 hPa South 4.0 mph /  6.4 km/h 4.0 mph /  6.4 km/h 91 % 0.00 in /  0 mm 11 W/m2
17:30 51.3 °F /  10.7 °C 48.8 °F /  9.3 °C 30.14 in /  1020.5 hPa South 4.0 mph /  6.4 km/h 4.0 mph /  6.4 km/h 91 % 0.00 in /  0 mm 9 W/m2
17:35 51.2 °F /  10.7 °C 49.0 °F /  9.4 °C 30.13 in /  1020.2 hPa South 4.0 mph /  6.4 km/h 4.0 mph /  6.4 km/h 92 % 0.00 in /  0 mm 7 W/m2
17:40 51.1 °F /  10.6 °C 48.9 °F /  9.4 °C 30.13 in /  1020.2 hPa South 3.0 mph /  4.8 km/h 3.0 mph /  4.8 km/h 92 % 0.00 in /  0 mm 7 W/m2
17:45 51.1 °F /  10.6 °C 48.9 °F /  9.4 °C 30.13 in /  1020.2 hPa South 3.0 mph /  4.8 km/h 4.0 mph /  6.4 km/h 92 % 0.00 in /  0 mm 5 W/m2
17:55 51.0 °F /  10.6 °C 48.8 °F /  9.3 °C 30.13 in /  1020.2 hPa South 1.0 mph /  1.6 km/h 2.0 mph /  3.2 km/h 92 % 0.00 in /  0 mm 0 W/m2
18:00 51.0 °F /  10.6 °C 48.8 °F /  9.3 °C 30.13 in /  1020.2 hPa South 1.0 mph /  1.6 km/h 1.0 mph /  1.6 km/h 92 % 0.00 in /  0 mm 0 W/m2
18:05 51.0 °F /  10.6 °C 49.0 °F /  9.4 °C 30.13 in /  1020.2 hPa South 1.0 mph /  1.6 km/h 2.0 mph /  3.2 km/h 93 % 0.00 in /  0 mm 0 W/m2
18:10 51.0 °F /  10.6 °C 49.0 °F /  9.4 °C 30.13 in /  1020.2 hPa South 1.0 mph /  1.6 km/h 3.0 mph /  4.8 km/h 93 % 0.00 in /  0 mm 0 W/m2
18:15 50.9 °F /  10.5 °C 48.9 °F /  9.4 °C 30.13 in /  1020.2 hPa South 2.0 mph /  3.2 km/h 4.0 mph /  6.4 km/h 93 % 0.00 in /  0 mm 0 W/m2
18:20 50.9 °F /  10.5 °C 48.9 °F /  9.4 °C 30.13 in /  1020.2 hPa South 2.0 mph /  3.2 km/h 4.0 mph /  6.4 km/h 93 % 0.00 in /  0 mm 0 W/m2
18:30 50.9 °F /  10.5 °C 48.9 °F /  9.4 °C 30.13 in /  1020.2 hPa South 4.0 mph /  6.4 km/h 4.0 mph /  6.4 km/h 93 % 0.00 in /  0 mm 0 W/m2
18:35 50.9 °F /  10.5 °C 48.9 °F /  9.4 °C 30.14 in /  1020.5 hPa South 3.0 mph /  4.8 km/h 4.0 mph /  6.4 km/h 93 % 0.00 in /  0 mm 0 W/m2
18:40 50.9 °F /  10.5 °C 48.7 °F /  9.3 °C 30.13 in /  1020.2 hPa South 3.0 mph /  4.8 km/h 3.0 mph /  4.8 km/h 92 % 0.00 in /  0 mm 0 W/m2
18:45 50.9 °F /  10.5 °C 48.7 °F /  9.3 °C 30.13 in /  1020.2 hPa South 3.0 mph /  4.8 km/h 3.0 mph /  4.8 km/h 92 % 0.00 in /  0 mm 0 W/m2
18:50 50.9 °F /  10.5 °C 48.7 °F /  9.3 °C 30.13 in /  1020.2 hPa South 4.0 mph /  6.4 km/h 5.0 mph /  8 km/h 92 % 0.00 in /  0 mm 0 W/m2
19:00 50.9 °F /  10.5 °C 48.7 °F /  9.3 °C 30.13 in /  1020.2 hPa SW 4.0 mph /  6.4 km/h 4.0 mph /  6.4 km/h 92 % 0.00 in /  0 mm 0 W/m2
19:05 50.9 °F /  10.5 °C 48.7 °F /  9.3 °C 30.13 in /  1020.2 hPa SSW 4.0 mph /  6.4 km/h 4.0 mph /  6.4 km/h 92 % 0.00 in /  0 mm 0 W/m2
19:10 50.9 °F /  10.5 °C 48.7 °F /  9.3 °C 30.14 in /  1020.5 hPa SSW 3.0 mph /  4.8 km/h 3.0 mph /  4.8 km/h 92 % 0.00 in /  0 mm 0 W/m2
19:15 50.9 °F /  10.5 °C 48.7 °F /  9.3 °C 30.13 in /  1020.2 hPa SSW 3.0 mph /  4.8 km/h 3.0 mph /  4.8 km/h 92 % 0.00 in /  0 mm 0 W/m2
19:20 50.9 °F /  10.5 °C 48.7 °F /  9.3 °C 30.13 in /  1020.2 hPa SSW 2.0 mph /  3.2 km/h 2.0 mph /  3.2 km/h 92 % 0.00 in /  0 mm 0 W/m2
19:25 50.9 °F /  10.5 °C 48.7 °F /  9.3 °C 30.14 in /  1020.5 hPa SW 2.0 mph /  3.2 km/h 4.0 mph /  6.4 km/h 92 % 0.00 in /  0 mm 0 W/m2
19:35 50.9 °F /  10.5 °C 48.7 °F /  9.3 °C 30.13 in /  1020.2 hPa SW 3.0 mph /  4.8 km/h 5.0 mph /  8 km/h 92 % 0.00 in /  0 mm 0 W/m2
19:40 50.9 °F /  10.5 °C 48.7 °F /  9.3 °C 30.13 in /  1020.2 hPa SW 2.0 mph /  3.2 km/h 2.0 mph /  3.2 km/h 92 % 0.00 in /  0 mm 0 W/m2
19:45 50.9 °F /  10.5 °C 48.7 °F /  9.3 °C 30.13 in /  1020.2 hPa SW 1.0 mph /  1.6 km/h 2.0 mph /  3.2 km/h 92 % 0.00 in /  0 mm 0 W/m2
19:50 50.8 °F /  10.4 °C 48.6 °F /  9.2 °C 30.14 in /  1020.5 hPa SW 1.0 mph /  1.6 km/h 3.0 mph /  4.8 km/h 92 % 0.00 in /  0 mm 0 W/m2
19:55 50.8 °F /  10.4 °C 48.6 °F /  9.2 °C 30.14 in /  1020.5 hPa SW 1.0 mph /  1.6 km/h 3.0 mph /  4.8 km/h 92 % 0.00 in /  0 mm 0 W/m2
20:05 50.8 °F /  10.4 °C 48.6 °F /  9.2 °C 30.15 in /  1020.9 hPa SW 2.0 mph /  3.2 km/h 3.0 mph /  4.8 km/h 92 % 0.00 in /  0 mm 0 W/m2
20:10 50.8 °F /  10.4 °C 48.6 °F /  9.2 °C 30.14 in /  1020.5 hPa SW 3.0 mph /  4.8 km/h 3.0 mph /  4.8 km/h 92 % 0.00 in /  0 mm 0 W/m2
20:15 50.7 °F /  10.4 °C 48.5 °F /  9.2 °C 30.14 in /  1020.5 hPa SW 3.0 mph /  4.8 km/h 3.0 mph /  4.8 km/h 92 % 0.00 in /  0 mm 0 W/m2
20:20 50.7 °F /  10.4 °C 48.2 °F /  9 °C 30.14 in /  1020.5 hPa SW 1.0 mph /  1.6 km/h 1.0 mph /  1.6 km/h 91 % 0.00 in /  0 mm 0 W/m2
20:25 50.6 °F /  10.3 °C 48.4 °F /  9.1 °C 30.14 in /  1020.5 hPa SW 1.0 mph /  1.6 km/h 1.0 mph /  1.6 km/h 92 % 0.00 in /  0 mm 0 W/m2
20:30 50.6 °F /  10.3 °C 48.4 °F /  9.1 °C 30.13 in /  1020.2 hPa Calm     92 % 0.00 in /  0 mm 0 W/m2
20:40 50.4 °F /  10.2 °C 48.2 °F /  9 °C 30.13 in /  1020.2 hPa Calm     92 % 0.00 in /  0 mm 0 W/m2
20:45 50.3 °F /  10.2 °C 48.1 °F /  8.9 °C 30.13 in /  1020.2 hPa Calm     92 % 0.00 in /  0 mm 0 W/m2
20:50 50.2 °F /  10.1 °C 48.0 °F /  8.9 °C 30.13 in /  1020.2 hPa Calm     92 % 0.00 in /  0 mm 0 W/m2
21:00 50.1 °F /  10.1 °C 47.9 °F /  8.8 °C 30.12 in /  1019.9 hPa South 1.0 mph /  1.6 km/h 2.0 mph /  3.2 km/h 92 % 0.00 in /  0 mm 0 W/m2
21:05 50.0 °F /  10 °C 47.8 °F /  8.8 °C 30.12 in /  1019.9 hPa SSE 2.0 mph /  3.2 km/h 2.0 mph /  3.2 km/h 92 % 0.00 in /  0 mm 0 W/m2
21:15 50.0 °F /  10 °C 47.8 °F /  8.8 °C 30.12 in /  1019.9 hPa SSE 1.0 mph /  1.6 km/h 2.0 mph /  3.2 km/h 92 % 0.00 in /  0 mm 0 W/m2
21:20 49.9 °F /  9.9 °C 47.7 °F /  8.7 °C 30.12 in /  1019.9 hPa SSE 1.0 mph /  1.6 km/h 3.0 mph /  4.8 km/h 92 % 0.00 in /  0 mm 0 W/m2
21:25 49.9 °F /  9.9 °C 47.7 °F /  8.7 °C 30.11 in /  1019.5 hPa SSE 1.0 mph /  1.6 km/h 3.0 mph /  4.8 km/h 92 % 0.00 in /  0 mm 0 W/m2
21:30 49.8 °F /  9.9 °C 47.6 °F /  8.7 °C 30.11 in /  1019.5 hPa Calm   2.0 mph /  3.2 km/h 92 % 0.00 in /  0 mm 0 W/m2
21:35 49.7 °F /  9.8 °C 47.5 °F /  8.6 °C 30.12 in /  1019.9 hPa SSE 1.0 mph /  1.6 km/h 2.0 mph /  3.2 km/h 92 % 0.00 in /  0 mm 0 W/m2
21:45 49.6 °F /  9.8 °C 47.4 °F /  8.6 °C 30.11 in /  1019.5 hPa South 2.0 mph /  3.2 km/h 3.0 mph /  4.8 km/h 92 % 0.00 in /  0 mm 0 W/m2
21:50 49.6 °F /  9.8 °C 47.7 °F /  8.7 °C 30.11 in /  1019.5 hPa SSE 3.0 mph /  4.8 km/h 3.0 mph /  4.8 km/h 93 % 0.00 in /  0 mm 0 W/m2
21:55 49.5 °F /  9.7 °C 47.6 °F /  8.7 °C 30.11 in /  1019.5 hPa South 2.0 mph /  3.2 km/h 3.0 mph /  4.8 km/h 93 % 0.00 in /  0 mm 0 W/m2
22:00 49.5 °F /  9.7 °C 47.6 °F /  8.7 °C 30.11 in /  1019.5 hPa South 2.0 mph /  3.2 km/h 3.0 mph /  4.8 km/h 93 % 0.00 in /  0 mm 0 W/m2
22:05 49.5 °F /  9.7 °C 47.6 °F /  8.7 °C 30.11 in /  1019.5 hPa South 1.0 mph /  1.6 km/h 3.0 mph /  4.8 km/h 93 % 0.00 in /  0 mm 0 W/m2
22:10 49.5 °F /  9.7 °C 47.6 °F /  8.7 °C 30.11 in /  1019.5 hPa South 1.0 mph /  1.6 km/h 2.0 mph /  3.2 km/h 93 % 0.00 in /  0 mm 0 W/m2
22:20 49.4 °F /  9.7 °C 47.5 °F /  8.6 °C 30.11 in /  1019.5 hPa Calm     93 % 0.00 in /  0 mm 0 W/m2
22:25 49.3 °F /  9.6 °C 47.4 °F /  8.6 °C 30.11 in /  1019.5 hPa South 1.0 mph /  1.6 km/h 1.0 mph /  1.6 km/h 93 % 0.00 in /  0 mm 0 W/m2
22:30 49.3 °F /  9.6 °C 47.4 °F /  8.6 °C 30.10 in /  1019.2 hPa South 2.0 mph /  3.2 km/h 2.0 mph /  3.2 km/h 93 % 0.00 in /  0 mm 0 W/m2
22:35 49.3 °F /  9.6 °C 47.4 °F /  8.6 °C 30.11 in /  1019.5 hPa SSE 2.0 mph /  3.2 km/h 4.0 mph /  6.4 km/h 93 % 0.00 in /  0 mm 0 W/m2
22:40 49.4 °F /  9.7 °C 47.5 °F /  8.6 °C 30.10 in /  1019.2 hPa SSE 3.0 mph /  4.8 km/h 6.0 mph /  9.7 km/h 93 % 0.00 in /  0 mm 0 W/m2
22:50 49.6 °F /  9.8 °C 47.9 °F /  8.8 °C 30.11 in /  1019.5 hPa SSE 5.0 mph /  8 km/h 5.0 mph /  8 km/h 94 % 0.00 in /  0 mm 0 W/m2
22:55 49.6 °F /  9.8 °C 47.7 °F /  8.7 °C 30.11 in /  1019.5 hPa SSE 4.0 mph /  6.4 km/h 5.0 mph /  8 km/h 93 % 0.00 in /  0 mm 0 W/m2
23:00 49.6 °F /  9.8 °C 47.7 °F /  8.7 °C 30.11 in /  1019.5 hPa SSE 3.0 mph /  4.8 km/h 3.0 mph /  4.8 km/h 93 % 0.00 in /  0 mm 0 W/m2
23:05 49.6 °F /  9.8 °C 47.7 °F /  8.7 °C 30.11 in /  1019.5 hPa SSE 2.0 mph /  3.2 km/h 3.0 mph /  4.8 km/h 93 % 0.00 in /  0 mm 0 W/m2
23:10 49.6 °F /  9.8 °C 47.7 °F /  8.7 °C 30.11 in /  1019.5 hPa Calm     93 % 0.00 in /  0 mm 0 W/m2
23:20 49.5 °F /  9.7 °C 47.6 °F /  8.7 °C 30.11 in /  1019.5 hPa South 1.0 mph /  1.6 km/h 4.0 mph /  6.4 km/h 93 % 0.00 in /  0 mm 0 W/m2
23:25 49.5 °F /  9.7 °C 47.6 °F /  8.7 °C 30.11 in /  1019.5 hPa South 1.0 mph /  1.6 km/h 4.0 mph /  6.4 km/h 93 % 0.00 in /  0 mm 0 W/m2
23:30 49.5 °F /  9.7 °C 47.6 °F /  8.7 °C 30.11 in /  1019.5 hPa South 1.0 mph /  1.6 km/h 1.0 mph /  1.6 km/h 93 % 0.00 in /  0 mm 0 W/m2
23:35 49.6 °F /  9.8 °C 47.7 °F /  8.7 °C 30.10 in /  1019.2 hPa SE 2.0 mph /  3.2 km/h 3.0 mph /  4.8 km/h 93 % 0.00 in /  0 mm 0 W/m2
23:40 49.6 °F /  9.8 °C 47.7 °F /  8.7 °C 30.10 in /  1019.2 hPa ESE 3.0 mph /  4.8 km/h 4.0 mph /  6.4 km/h 93 % 0.00 in /  0 mm 0 W/m2
23:45 49.7 °F /  9.8 °C 48.0 °F /  8.9 °C 30.10 in /  1019.2 hPa ESE 4.0 mph /  6.4 km/h 4.0 mph /  6.4 km/h 94 % 0.00 in /  0 mm 0 W/m2
23:50 49.7 °F /  9.8 °C 47.8 °F /  8.8 °C 30.10 in /  1019.2 hPa ESE 4.0 mph /  6.4 km/h 4.0 mph /  6.4 km/h 93 % 0.00 in /  0 mm 0 W/m2
Delerius-Weather
Compliments of Weather Underground - 2 mb

Data updates at regular intervals.